TOM574 LFRS-EGKK
Flight info
| Callsign | TOM574 |
|---|---|
| Flight time | N/A |
| Altitude | 28000 |
| Route | BALNI DCT RINSO UM184 EKRAS UT507 REVTU DCT ODREP UP88 VASUX |
| Aircraft | B738/M-SDE2E3FGHIRWXY/LB1 |
Departure
| Time | 2026-05-04 10:23 |
|---|---|
| Airport | Nantes Atlantique Airport (LFRS) |
Arrival
| Time | N/A |
|---|---|
| Airport | London Gatwick Airport (EGKK) |
| Time | Latitude | Longitude | Altitude | Speed | Heading |
|---|---|---|---|---|---|
| 2026-05-04 09:57 | 47.15445 | -1.60171 | 98 ft | 0 kts | 27° |
| 2026-05-04 10:13 | 47.15436 | -1.60178 | 99 ft | 2 kts | 27° |
| 2026-05-04 10:14 | 47.15421 | -1.60189 | 99 ft | 2 kts | 15° |
| 2026-05-04 10:14 | 47.15405 | -1.60193 | 98 ft | 2 kts | 350° |
| 2026-05-04 10:16 | 47.15390 | -1.60179 | 99 ft | 0 kts | 302° |
| 2026-05-04 10:17 | 47.15391 | -1.60182 | 100 ft | 2 kts | 302° |
| 2026-05-04 10:19 | 47.15302 | -1.60818 | 101 ft | 20 kts | 207° |
| 2026-05-04 10:19 | 47.15181 | -1.60910 | 99 ft | 19 kts | 207° |
| 2026-05-04 10:19 | 47.15064 | -1.60999 | 98 ft | 19 kts | 207° |
| 2026-05-04 10:19 | 47.14951 | -1.61085 | 98 ft | 18 kts | 207° |
| 2026-05-04 10:20 | 47.14841 | -1.61169 | 97 ft | 18 kts | 207° |
| 2026-05-04 10:20 | 47.14720 | -1.61262 | 98 ft | 20 kts | 207° |
| 2026-05-04 10:20 | 47.14599 | -1.61354 | 95 ft | 19 kts | 207° |
| 2026-05-04 10:20 | 47.14482 | -1.61444 | 95 ft | 19 kts | 207° |
| 2026-05-04 10:21 | 47.14366 | -1.61532 | 92 ft | 19 kts | 207° |
| 2026-05-04 10:21 | 47.14250 | -1.61621 | 93 ft | 18 kts | 207° |
| 2026-05-04 10:21 | 47.14167 | -1.61718 | 87 ft | 15 kts | 242° |
| 2026-05-04 10:21 | 47.14149 | -1.61862 | 90 ft | 15 kts | 286° |
| 2026-05-04 10:22 | 47.14425 | -1.61749 | 94 ft | 60 kts | 27° |
| 2026-05-04 10:22 | 47.15013 | -1.61303 | 98 ft | 128 kts | 27° |
| 2026-05-04 10:22 | 47.15969 | -1.60580 | 223 ft | 171 kts | 27° |
| 2026-05-04 10:23 | 47.16979 | -1.59779 | 1214 ft | 161 kts | 20° |
| 2026-05-04 10:23 | 47.18110 | -1.59662 | 2032 ft | 175 kts | 344° |
| 2026-05-04 10:25 | 47.28874 | -1.62974 | 6372 ft | 273 kts | 355° |
| 2026-05-04 10:25 | 47.30805 | -1.63224 | 7048 ft | 280 kts | 355° |
| 2026-05-04 10:25 | 47.32759 | -1.63489 | 7815 ft | 285 kts | 354° |
| 2026-05-04 10:25 | 47.34748 | -1.63760 | 8597 ft | 289 kts | 354° |
| 2026-05-04 10:26 | 47.36763 | -1.64034 | 9399 ft | 293 kts | 354° |
| 2026-05-04 10:26 | 47.38809 | -1.64310 | 10139 ft | 299 kts | 354° |
| 2026-05-04 10:26 | 47.40943 | -1.64598 | 10440 ft | 320 kts | 354° |
| 2026-05-04 10:26 | 47.43244 | -1.64908 | 10637 ft | 343 kts | 354° |
| 2026-05-04 10:27 | 47.45698 | -1.65240 | 10847 ft | 365 kts | 354° |
| 2026-05-04 10:27 | 47.48232 | -1.65582 | 11568 ft | 367 kts | 354° |
| 2026-05-04 10:27 | 47.50793 | -1.65924 | 12224 ft | 372 kts | 354° |
| 2026-05-04 10:27 | 47.53386 | -1.66269 | 12811 ft | 377 kts | 354° |
| 2026-05-04 10:28 | 47.56016 | -1.66621 | 13405 ft | 382 kts | 354° |
| 2026-05-04 10:28 | 47.58681 | -1.66979 | 14044 ft | 387 kts | 354° |
| 2026-05-04 10:28 | 47.61380 | -1.67221 | 14682 ft | 392 kts | 2° |
| 2026-05-04 10:28 | 47.64032 | -1.66300 | 15299 ft | 394 kts | 22° |
| 2026-05-04 10:29 | 47.66588 | -1.64783 | 15938 ft | 398 kts | 22° |
| 2026-05-04 10:29 | 47.69171 | -1.63235 | 16539 ft | 402 kts | 22° |
| 2026-05-04 10:29 | 47.71785 | -1.61676 | 17138 ft | 407 kts | 22° |
| 2026-05-04 10:29 | 47.74427 | -1.60116 | 17740 ft | 411 kts | 22° |
| 2026-05-04 10:30 | 47.77100 | -1.58550 | 18321 ft | 415 kts | 22° |
| 2026-05-04 10:30 | 47.79804 | -1.56973 | 18831 ft | 420 kts | 22° |
| 2026-05-04 10:30 | 47.82545 | -1.55378 | 19312 ft | 425 kts | 22° |
| 2026-05-04 10:30 | 47.85314 | -1.53767 | 19815 ft | 429 kts | 22° |
| 2026-05-04 10:31 | 47.88103 | -1.52142 | 20321 ft | 433 kts | 22° |
| 2026-05-04 10:31 | 47.90926 | -1.50494 | 20810 ft | 437 kts | 22° |
| 2026-05-04 10:32 | 48.08885 | -1.43822 | 23628 ft | 459 kts | 355° |
| 2026-05-04 10:33 | 48.12088 | -1.44092 | 24004 ft | 462 kts | 355° |
| 2026-05-04 10:33 | 48.15309 | -1.44386 | 24399 ft | 465 kts | 355° |
| 2026-05-04 10:33 | 48.18551 | -1.44673 | 24797 ft | 467 kts | 355° |
| 2026-05-04 10:33 | 48.21803 | -1.44942 | 25168 ft | 470 kts | 355° |
| 2026-05-04 10:34 | 48.25077 | -1.45195 | 25552 ft | 472 kts | 355° |
| 2026-05-04 10:34 | 48.28365 | -1.45438 | 25917 ft | 475 kts | 355° |
| 2026-05-04 10:34 | 48.31676 | -1.45676 | 26253 ft | 478 kts | 356° |
| 2026-05-04 10:34 | 48.34999 | -1.45913 | 26593 ft | 480 kts | 356° |
| 2026-05-04 10:35 | 48.38348 | -1.46151 | 26924 ft | 483 kts | 356° |
| 2026-05-04 10:35 | 48.41712 | -1.46392 | 27280 ft | 485 kts | 356° |
| 2026-05-04 10:35 | 48.45084 | -1.46634 | 27675 ft | 485 kts | 356° |
| 2026-05-04 10:35 | 48.48454 | -1.46877 | 28000 ft | 487 kts | 356° |
| 2026-05-04 10:36 | 48.51875 | -1.47125 | 27979 ft | 494 kts | 356° |
| 2026-05-04 10:36 | 48.55275 | -1.47372 | 27986 ft | 497 kts | 356° |
| 2026-05-04 10:36 | 48.58776 | -1.47626 | 27983 ft | 497 kts | 356° |
| 2026-05-04 10:36 | 48.62184 | -1.47873 | 27969 ft | 496 kts | 356° |
| 2026-05-04 10:37 | 48.65630 | -1.48123 | 27988 ft | 495 kts | 356° |
| 2026-05-04 10:37 | 48.69064 | -1.48373 | 27984 ft | 494 kts | 356° |
| 2026-05-04 10:37 | 48.72490 | -1.48623 | 27950 ft | 493 kts | 356° |
| 2026-05-04 10:37 | 48.75920 | -1.48874 | 27925 ft | 492 kts | 356° |
| 2026-05-04 10:39 | 48.96396 | -1.51711 | 27992 ft | 492 kts | 345° |
| 2026-05-04 10:39 | 48.99737 | -1.52864 | 27987 ft | 492 kts | 345° |
| 2026-05-04 10:39 | 49.03070 | -1.54027 | 27989 ft | 491 kts | 345° |
| 2026-05-04 10:40 | 49.06409 | -1.55169 | 27994 ft | 491 kts | 345° |
| 2026-05-04 10:40 | 49.09751 | -1.56285 | 27985 ft | 492 kts | 346° |
| 2026-05-04 10:40 | 49.13093 | -1.57381 | 27979 ft | 492 kts | 346° |
| 2026-05-04 10:40 | 49.16396 | -1.58452 | 27979 ft | 492 kts | 346° |
| 2026-05-04 10:41 | 49.19787 | -1.59547 | 28000 ft | 491 kts | 346° |
| 2026-05-04 10:41 | 49.23088 | -1.60614 | 27997 ft | 492 kts | 346° |
| 2026-05-04 10:41 | 49.26437 | -1.61700 | 28007 ft | 492 kts | 346° |
| 2026-05-04 10:42 | 49.33128 | -1.63878 | 28003 ft | 492 kts | 346° |
| 2026-05-04 10:42 | 49.39819 | -1.66065 | 28009 ft | 491 kts | 346° |
| 2026-05-04 10:43 | 49.46497 | -1.68254 | 28019 ft | 491 kts | 346° |
| 2026-05-04 10:44 | 49.69826 | -1.67228 | 28022 ft | 491 kts | 21° |
| 2026-05-04 10:45 | 49.73026 | -1.65362 | 28007 ft | 491 kts | 21° |
| 2026-05-04 10:45 | 49.79436 | -1.61688 | 28017 ft | 490 kts | 21° |
| 2026-05-04 10:46 | 49.85852 | -1.58102 | 28008 ft | 490 kts | 20° |
| 2026-05-04 10:46 | 49.92271 | -1.54528 | 28001 ft | 490 kts | 20° |
| 2026-05-04 10:47 | 49.98680 | -1.50943 | 28022 ft | 489 kts | 20° |
| 2026-05-04 10:47 | 50.05049 | -1.47579 | 27415 ft | 483 kts | 18° |
| 2026-05-04 10:47 | 50.08247 | -1.46062 | 26794 ft | 478 kts | 17° |
| 2026-05-04 10:49 | 50.29856 | -1.35567 | 22549 ft | 451 kts | 17° |
| 2026-05-04 10:49 | 50.32840 | -1.34105 | 21908 ft | 447 kts | 17° |
| 2026-05-04 10:50 | 50.35795 | -1.32656 | 21280 ft | 443 kts | 17° |
| 2026-05-04 10:51 | 50.54492 | -1.20071 | 17830 ft | 399 kts | 43° |
| 2026-05-04 10:52 | 50.56592 | -1.17230 | 17361 ft | 394 kts | 42° |
| 2026-05-04 10:52 | 50.58665 | -1.14468 | 16970 ft | 388 kts | 41° |
| 2026-05-04 10:52 | 50.60716 | -1.11754 | 16619 ft | 381 kts | 41° |
| 2026-05-04 10:54 | 50.72827 | -0.91608 | 14277 ft | 355 kts | 52° |
| 2026-05-04 10:54 | 50.74364 | -0.88581 | 13947 ft | 353 kts | 52° |
| 2026-05-04 10:56 | 50.82147 | -0.65982 | 11555 ft | 323 kts | 71° |
| 2026-05-04 10:56 | 50.82929 | -0.62679 | 11242 ft | 315 kts | 71° |
| 2026-05-04 10:56 | 50.83676 | -0.59518 | 10940 ft | 305 kts | 71° |
| 2026-05-04 10:57 | 50.84337 | -0.56381 | 10630 ft | 297 kts | 78° |
| 2026-05-04 10:57 | 50.84765 | -0.53231 | 10394 ft | 289 kts | 80° |
| 2026-05-04 10:57 | 50.85145 | -0.50150 | 10100 ft | 282 kts | 81° |
| 2026-05-04 10:57 | 50.85512 | -0.47127 | 9793 ft | 279 kts | 81° |
| 2026-05-04 10:58 | 50.85873 | -0.44114 | 9473 ft | 278 kts | 81° |
| 2026-05-04 10:58 | 50.86228 | -0.41118 | 9125 ft | 277 kts | 81° |
| 2026-05-04 10:58 | 50.86582 | -0.38111 | 8758 ft | 277 kts | 81° |
| 2026-05-04 10:58 | 50.87241 | -0.35254 | 8357 ft | 279 kts | 54° |
| 2026-05-04 10:59 | 50.88726 | -0.33409 | 8031 ft | 271 kts | 20° |
| 2026-05-04 10:59 | 50.90549 | -0.33194 | 7693 ft | 261 kts | 345° |
| 2026-05-04 10:59 | 50.92055 | -0.34606 | 7336 ft | 250 kts | 310° |
| 2026-05-04 10:59 | 50.93013 | -0.36848 | 7016 ft | 243 kts | 301° |
| 2026-05-04 11:00 | 50.93908 | -0.39093 | 6654 ft | 238 kts | 301° |
| 2026-05-04 11:01 | 51.02510 | -0.46640 | 4399 ft | 205 kts | 346° |
| 2026-05-04 11:02 | 51.03873 | -0.47197 | 4132 ft | 199 kts | 346° |
| 2026-05-04 11:02 | 51.05189 | -0.47737 | 3895 ft | 192 kts | 346° |
| 2026-05-04 11:05 | 51.13752 | -0.26741 | 1037 ft | 143 kts | 76° |
| 2026-05-04 11:06 | 51.13966 | -0.25192 | 843 ft | 144 kts | 77° |
| 2026-05-04 11:06 | 51.14175 | -0.23629 | 651 ft | 146 kts | 76° |
| 2026-05-04 11:06 | 51.14401 | -0.22031 | 434 ft | 150 kts | 76° |
| 2026-05-04 11:06 | 51.14627 | -0.20393 | 234 ft | 150 kts | 76° |